Portada
METAR-TAF:

METAR-TAF

Aeroports :

Colmenar Viejo, Espanya

latitud: 40-39N, longitud: 003-44W, altitud: -999 m

METAR: manca

Hora: 21:51 (19:51 UTC)

Pronòstic

L'informe es va fer fa 14 hores i 51 minuts, a les 05:00 UTC
Pronòstic vàlid del 21 a les 06 UTC al 21 a les 15 UTC
Vent 5 kt del Nord-Est
Visibilitat 10 km o més
sense núvols per sota de 1500 mi sense presència de cumulonimbus.
Probabilitat 30% :
Temporalment
l' 21 a les 13 UTC al 21 a les 15 UTC
Escasses núvols a una alçada de 4500 ft, Cumulus congestus.

TAF: LECV 210500Z 2106/2115 04005KT CAVOK PROB30 TEMPO 2113/2115 FEW045TCU

Observacions i pronòstics meteorològics de més de 4000 aeroports (METAR i TAF).

Les estacions disponibles són els punts grocs i vermells al mapa.

Posi el ratolí al punt desitjat per veure el nom de l'estació.

Feu clic per veure les observacions i els pronòstics meteorològics.

Per canviar el mapa: feu clic els botons verds amb una creu de color negre per apropar; al botó verd amb un guió per allunyar la imatge; o en les fletxes verdes per a mapes adjacents.


METAR-TAF: